Time;durP1;ratioP1;P1;durP2;ratioP2;P2;SDS_P1;SDS_P2;PMS_P1;PMS_P2;Temp;Humidity;BMP_temperature;BMP_pressure;BME280_temperature;BME280_humidity;BME280_pressure;Samples;Min_cycle;Max_cycle;Signal;HPM_P1;HPM_P2
2022/01/08 00:00:56;;;;;;;17.17;5.93;;;0.90;99.90;;;;;;5073963;28;20044;-79
2022/01/08 00:03:22;;;;;;;16.55;6.68;;;0.80;99.90;;;;;;5073837;28;20049;-79
2022/01/08 00:05:48;;;;;;;13.93;5.75;;;0.80;99.90;;;;;;5073750;28;20111;-79
2022/01/08 00:08:15;;;;;;;17.50;6.93;;;0.80;99.90;;;;;;5073395;28;20045;-78
2022/01/08 00:10:41;;;;;;;18.98;6.40;;;0.80;99.90;;;;;;5073399;28;20080;-78
2022/01/08 00:13:08;;;;;;;13.20;6.10;;;0.80;99.90;;;;;;5073335;28;20048;-79
2022/01/08 00:15:34;;;;;;;12.75;7.03;;;1.20;99.90;;;;;;5073929;28;20054;-78
2022/01/08 00:18:00;;;;;;;14.00;6.18;;;0.70;99.90;;;;;;5055742;28;20478;-78
2022/01/08 00:20:27;;;;;;;17.30;6.10;;;0.70;99.90;;;;;;5073592;28;20049;-79
2022/01/08 00:22:54;;;;;;;12.77;6.47;;;0.70;99.90;;;;;;5055524;28;20127;-78
2022/01/08 00:25:20;;;;;;;14.70;6.35;;;0.70;99.90;;;;;;5073531;28;20120;-79
2022/01/08 00:27:46;;;;;;;12.85;5.72;;;0.70;99.90;;;;;;5073552;28;20132;-79
2022/01/08 00:30:13;;;;;;;13.57;5.47;;;0.60;99.90;;;;;;5073369;28;20478;-77
2022/01/08 00:32:42;;;;;;;12.25;5.93;;;0.70;99.90;;;;;;5055496;28;20040;-78
2022/01/08 00:35:09;;;;;;;11.85;5.05;;;0.60;99.90;;;;;;5073153;28;20067;-78
2022/01/08 00:37:37;;;;;;;14.07;5.47;;;0.60;99.90;;;;;;5073021;28;20161;-78
2022/01/08 00:40:07;;;;;;;14.80;5.75;;;0.60;99.90;;;;;;5055372;28;20513;-78
2022/01/08 00:42:33;;;;;;;10.60;4.47;;;0.60;99.90;;;;;;5053376;28;20045;-76
2022/01/08 00:44:59;;;;;;;12.35;4.88;;;0.60;99.90;;;;;;5051779;28;20068;-77
2022/01/08 00:47:24;;;;;;;12.70;5.28;;;0.60;99.90;;;;;;5053011;28;20045;-78
2022/01/08 00:49:50;;;;;;;15.80;4.97;;;0.60;99.90;;;;;;5052926;28;20106;-78
2022/01/08 00:52:16;;;;;;;12.75;5.20;;;0.50;99.90;;;;;;5051369;28;20476;-79
2022/01/08 00:54:41;;;;;;;13.05;4.88;;;2.10;99.90;;;;;;5052263;28;20043;-79
2022/01/08 00:57:07;;;;;;;12.55;5.38;;;0.50;99.90;;;;;;5052874;28;20041;-78
2022/01/08 00:59:33;;;;;;;13.00;6.15;;;0.50;99.90;;;;;;5052949;28;20072;-78
2022/01/08 01:01:58;;;;;;;12.90;6.20;;;0.50;99.90;;;;;;5053000;28;20529;-77
2022/01/08 01:04:24;;;;;;;12.43;6.28;;;0.50;99.90;;;;;;5051938;28;20067;-77
2022/01/08 01:06:50;;;;;;;12.63;5.88;;;0.50;99.90;;;;;;5053087;28;20388;-78
2022/01/08 01:09:15;;;;;;;11.73;5.68;;;0.40;99.90;;;;;;5052807;28;20112;-78
2022/01/08 01:11:41;;;;;;;13.43;5.25;;;0.50;99.90;;;;;;5051370;28;20045;-78
2022/01/08 01:14:07;;;;;;;14.27;5.68;;;0.50;99.90;;;;;;5052952;28;20464;-78
2022/01/08 01:16:33;;;;;;;14.75;5.15;;;0.50;99.90;;;;;;5051716;28;20052;-78
2022/01/08 01:19:01;;;;;;;13.25;5.43;;;0.40;99.90;;;;;;5052480;28;20521;-79
2022/01/08 01:21:27;;;;;;;11.18;5.40;;;0.50;99.90;;;;;;5034030;28;20144;-78
2022/01/08 01:23:53;;;;;;;11.55;4.85;;;0.40;99.90;;;;;;5052765;28;20128;-77
2022/01/08 01:26:23;;;;;;;12.35;4.60;;;0.40;99.90;;;;;;5051146;28;20053;-78
2022/01/08 01:29:14;;;;;;;11.45;5.13;;;0.50;99.90;;;;;;5052676;28;20053;-77
2022/01/08 01:42:55;;;;;;;10.50;4.47;;;0.60;99.90;;;;;;5050998;28;20106;-78
2022/01/08 01:48:04;;;;;;;12.13;4.53;;;0.60;99.90;;;;;;5052403;28;20081;-77
2022/01/08 01:50:30;;;;;;;10.27;3.72;;;0.70;99.90;;;;;;5052338;28;20131;-78
2022/01/08 01:52:56;;;;;;;7.57;3.15;;;0.80;99.90;;;;;;5052388;28;20045;-78
2022/01/08 01:55:22;;;;;;;9.27;3.78;;;0.70;99.90;;;;;;5050999;28;20049;-78
2022/01/08 01:57:48;;;;;;;10.15;3.40;;;0.70;99.90;;;;;;5053255;28;20041;-77
2022/01/08 02:00:14;;;;;;;11.38;3.15;;;0.70;99.90;;;;;;5053586;28;20483;-83
2022/01/08 02:02:40;;;;;;;10.98;3.45;;;0.70;99.90;;;;;;5052777;28;20040;-83
2022/01/08 02:05:06;;;;;;;10.57;3.35;;;0.70;99.90;;;;;;5066281;28;20037;-78
2022/01/08 02:07:32;;;;;;;10.20;3.80;;;0.70;99.90;;;;;;5059769;28;20047;-79
2022/01/08 02:09:58;;;;;;;10.13;3.53;;;0.60;99.90;;;;;;5059014;28;20045;-77
2022/01/08 02:12:24;;;;;;;9.25;3.55;;;0.70;99.90;;;;;;5054073;28;20053;-79
2022/01/08 02:14:50;;;;;;;11.57;3.58;;;0.20;99.90;;;;;;5053662;28;20407;-78
2022/01/08 02:17:17;;;;;;;11.52;4.00;;;0.60;99.90;;;;;;5055897;28;20040;-82
2022/01/08 02:19:42;;;;;;;10.60;3.45;;;1.60;99.90;;;;;;5056294;28;20037;-82
2022/01/08 02:22:15;;;;;;;12.00;4.22;;;0.70;99.90;;;;;;5054854;28;20071;-82
2022/01/08 02:24:42;;;;;;;10.02;3.63;;;0.70;99.90;;;;;;5055744;28;20112;-82
2022/01/08 02:27:08;;;;;;;11.75;4.13;;;0.80;99.90;;;;;;5056077;28;20049;-83
2022/01/08 02:29:34;;;;;;;14.68;6.13;;;0.80;99.90;;;;;;5055662;28;20091;-82
2022/01/08 02:32:07;;;;;;;11.45;4.72;;;0.80;99.90;;;;;;5055702;28;20053;-82
2022/01/08 02:34:33;;;;;;;15.88;5.53;;;0.80;99.90;;;;;;5055734;28;20090;-80
2022/01/08 02:37:00;;;;;;;14.40;5.22;;;0.80;99.90;;;;;;5054455;28;20135;-82
2022/01/08 02:39:26;;;;;;;15.90;7.03;;;0.80;99.90;;;;;;5055166;28;20049;-83
2022/01/08 02:41:58;;;;;;;15.40;5.93;;;0.80;99.90;;;;;;5055412;28;20495;-80
2022/01/08 02:44:25;;;;;;;15.27;6.50;;;0.80;99.90;;;;;;5054185;28;20457;-83
2022/01/08 02:46:50;;;;;;;13.38;6.00;;;0.80;99.90;;;;;;5055524;28;20047;-81
2022/01/08 02:49:17;;;;;;;16.67;6.25;;;0.80;99.90;;;;;;5054190;28;20048;-82
2022/01/08 02:51:42;;;;;;;18.33;5.80;;;0.70;99.90;;;;;;5054959;28;20095;-82
2022/01/08 02:54:10;;;;;;;12.52;5.85;;;0.70;99.90;;;;;;5055135;28;20037;-82
2022/01/08 02:56:44;;;;;;;14.55;6.07;;;0.70;99.90;;;;;;5054343;28;20053;-81
2022/01/08 02:59:12;;;;;;;14.63;5.07;;;0.60;99.90;;;;;;5058787;28;20044;-79
2022/01/08 03:01:38;;;;;;;11.68;5.63;;;0.60;99.90;;;;;;5061941;28;20041;-83
2022/01/08 03:04:05;;;;;;;12.93;6.15;;;0.60;99.90;;;;;;5061362;28;20044;-79
2022/01/08 03:06:31;;;;;;;14.85;5.80;;;0.60;99.90;;;;;;5059297;28;20049;-82
2022/01/08 03:08:57;;;;;;;16.38;6.53;;;0.50;99.90;;;;;;5055270;28;20128;-83
2022/01/08 03:11:23;;;;;;;12.32;5.38;;;0.50;99.90;;;;;;5054990;28;20152;-82
2022/01/08 03:13:49;;;;;;;13.80;5.82;;;0.50;99.90;;;;;;5054980;28;20455;-83
2022/01/08 03:16:15;;;;;;;17.40;5.72;;;1.40;99.90;;;;;;5055276;28;20048;-78
2022/01/08 03:18:41;;;;;;;13.68;5.63;;;0.40;99.90;;;;;;5054868;28;20048;-82
2022/01/08 03:21:16;;;;;;;12.77;5.68;;;0.40;99.90;;;;;;5054764;28;20041;-82
2022/01/08 03:23:50;;;;;;;13.95;5.80;;;0.40;99.90;;;;;;5052773;28;20491;-82
2022/01/08 03:26:17;;;;;;;12.68;5.35;;;0.50;99.90;;;;;;5054655;28;20037;-83
2022/01/08 03:28:44;;;;;;;12.52;5.60;;;0.40;99.90;;;;;;5054782;28;20045;-82
2022/01/08 03:31:11;;;;;;;11.93;5.40;;;0.40;99.90;;;;;;5054587;28;20100;-83
2022/01/08 03:33:36;;;;;;;15.68;5.93;;;0.40;99.90;;;;;;5054528;28;20515;-83
2022/01/08 03:36:02;;;;;;;13.60;5.88;;;0.40;99.90;;;;;;5053874;28;20095;-82
2022/01/08 03:38:28;;;;;;;14.13;6.28;;;0.40;99.90;;;;;;5054472;28;20061;-82
2022/01/08 03:40:54;;;;;;;16.40;6.60;;;0.40;99.90;;;;;;5054381;28;20059;-82
2022/01/08 03:43:19;;;;;;;12.32;5.78;;;0.30;99.90;;;;;;5054412;28;20041;-82
2022/01/08 03:45:45;;;;;;;15.23;6.20;;;0.30;99.90;;;;;;5054303;28;20049;-82
2022/01/08 03:48:25;;;;;;;11.85;5.05;;;0.30;99.90;;;;;;5054265;28;20037;-79
2022/01/08 03:50:51;;;;;;;11.23;4.85;;;0.30;99.90;;;;;;5053974;28;20052;-82
2022/01/08 03:53:17;;;;;;;14.00;5.78;;;0.20;99.90;;;;;;5052702;28;20483;-82
2022/01/08 03:55:42;;;;;;;14.18;5.47;;;0.20;99.90;;;;;;5054142;28;20072;-82
2022/01/08 03:58:08;;;;;;;12.45;5.63;;;0.20;99.90;;;;;;5054341;28;20509;-79
2022/01/08 04:00:33;;;;;;;15.02;6.22;;;0.20;99.90;;;;;;5052796;28;20040;-79
2022/01/08 04:02:59;;;;;;;14.27;6.30;;;0.20;99.90;;;;;;5053881;28;20052;-73
2022/01/08 04:05:25;;;;;;;15.05;6.60;;;0.20;99.90;;;;;;5053747;28;20041;-79
2022/01/08 04:07:50;;;;;;;14.90;6.68;;;0.10;99.90;;;;;;5053586;28;20052;-78
2022/01/08 04:10:16;;;;;;;14.82;6.78;;;0.10;99.90;;;;;;5052612;28;20466;-79
2022/01/08 04:12:47;;;;;;;15.02;7.07;;;0.10;99.90;;;;;;5052492;28;20119;-79
2022/01/08 04:15:47;;;;;;;15.55;6.85;;;1.00;99.90;;;;;;5054005;28;20407;-78
2022/01/08 04:18:05;;;;;;;14.50;6.77;;;0.10;99.90;;;;;;5050284;28;20060;-79
2022/01/08 04:20:30;;;;;;;15.27;6.85;;;0.10;99.90;;;;;;5053737;28;20280;-78
2022/01/08 04:22:56;;;;;;;13.88;6.72;;;0.10;99.90;;;;;;5053222;28;20049;-77
2022/01/08 04:25:23;;;;;;;13.50;6.90;;;0.50;99.90;;;;;;5053548;28;20041;-78
2022/01/08 04:27:49;;;;;;;13.70;6.93;;;0.10;99.90;;;;;;5053437;28;20041;-78
2022/01/08 04:30:16;;;;;;;14.23;6.35;;;0.10;99.90;;;;;;5053252;28;20095;-79
2022/01/08 04:32:41;;;;;;;15.38;6.93;;;0.10;99.90;;;;;;5053042;28;20043;-78
2022/01/08 04:35:07;;;;;;;17.08;6.70;;;0.10;99.90;;;;;;5053214;28;20040;-79
2022/01/08 04:37:33;;;;;;;14.52;5.95;;;0.10;99.90;;;;;;5051495;28;20091;-79
2022/01/08 04:39:58;;;;;;;13.63;5.85;;;0.10;99.90;;;;;;5070012;28;20044;-77
2022/01/08 04:42:24;;;;;;;16.50;5.47;;;0.10;99.90;;;;;;5038843;28;20032;-79
2022/01/08 04:44:52;;;;;;;9.57;2.55;;;0.10;99.90;;;;;;5073028;28;20079;-78
2022/01/08 04:47:17;;;;;;;10.68;3.03;;;0.10;99.90;;;;;;5073067;28;20116;-79
2022/01/08 04:49:43;;;;;;;8.10;2.78;;;0.10;99.90;;;;;;5072769;28;20462;-79
2022/01/08 04:52:09;;;;;;;6.90;2.55;;;0.10;99.90;;;;;;5072886;28;20123;-80
2022/01/08 04:54:34;;;;;;;8.48;2.47;;;0.10;99.90;;;;;;5073175;28;20080;-78
2022/01/08 04:57:00;;;;;;;11.18;3.08;;;0.90;99.90;;;;;;5038516;28;20129;-80
2022/01/08 04:59:26;;;;;;;7.40;2.88;;;0.20;99.90;;;;;;5055029;28;20056;-82
2022/01/08 05:01:51;;;;;;;7.45;2.35;;;0.10;99.90;;;;;;5073111;28;20048;-81
2022/01/08 05:04:17;;;;;;;7.10;2.58;;;0.10;99.90;;;;;;5072825;28;20052;-81
2022/01/08 05:06:43;;;;;;;6.82;2.25;;;0.10;99.90;;;;;;5073066;28;20123;-81
2022/01/08 05:09:08;;;;;;;7.45;2.45;;;0.10;99.90;;;;;;5055546;28;20524;-81
2022/01/08 05:11:34;;;;;;;6.40;2.50;;;0.10;99.90;;;;;;5072833;28;20051;-80
2022/01/08 05:14:04;;;;;;;7.80;2.42;;;1.10;99.90;;;;;;5073302;28;20044;-79
2022/01/08 05:16:30;;;;;;;9.50;2.40;;;0.20;99.90;;;;;;5054511;28;20135;-81
2022/01/08 05:19:00;;;;;;;6.45;2.10;;;0.10;99.90;;;;;;5055635;28;20119;-80
2022/01/08 05:21:29;;;;;;;6.43;2.40;;;0.10;99.90;;;;;;5037829;28;20062;-81
2022/01/08 05:23:58;;;;;;;6.90;2.17;;;0.10;99.90;;;;;;5054910;28;20466;-79
2022/01/08 05:26:25;;;;;;;8.48;2.10;;;0.10;99.90;;;;;;5072835;28;20072;-79
2022/01/08 05:28:54;;;;;;;6.57;2.05;;;0.10;99.90;;;;;;5072712;28;20482;-80
2022/01/08 05:31:22;;;;;;;4.93;2.00;;;1.20;99.90;;;;;;5072826;28;20090;-81
2022/01/08 05:33:49;;;;;;;6.53;2.05;;;0.10;99.90;;;;;;5072554;28;20459;-82
2022/01/08 05:36:16;;;;;;;5.00;1.90;;;0.10;99.90;;;;;;5072613;28;20079;-81
2022/01/08 05:38:42;;;;;;;6.75;1.73;;;0.10;99.90;;;;;;5072802;28;20518;-82
2022/01/08 05:41:07;;;;;;;9.23;2.35;;;0.10;99.90;;;;;;5055028;28;20154;-81
2022/01/08 05:43:33;;;;;;;9.88;2.53;;;0.20;99.90;;;;;;5054799;28;20393;-79
2022/01/08 05:45:59;;;;;;;6.18;1.70;;;0.20;99.90;;;;;;5054744;28;20136;-81
2022/01/08 05:48:25;;;;;;;4.60;1.55;;;0.20;99.90;;;;;;5054899;28;20045;-81
2022/01/08 05:50:51;;;;;;;5.70;1.98;;;0.20;99.90;;;;;;5080843;28;20041;-79
2022/01/08 05:53:18;;;;;;;4.85;1.70;;;0.20;99.90;;;;;;5095957;28;20037;-79
2022/01/08 05:55:44;;;;;;;15.45;2.33;;;0.20;99.90;;;;;;5086410;28;20024;-78
2022/01/08 05:58:10;;;;;;;6.88;2.15;;;0.20;99.90;;;;;;5065564;28;20044;-79
2022/01/08 06:00:36;;;;;;;9.43;2.72;;;0.20;99.90;;;;;;5087287;28;20044;-78
2022/01/08 06:03:01;;;;;;;10.55;2.55;;;0.20;99.90;;;;;;5093991;28;20055;-79
2022/01/08 06:05:27;;;;;;;10.90;2.40;;;0.20;99.90;;;;;;5089205;28;20040;-79
2022/01/08 06:07:53;;;;;;;8.05;2.65;;;0.20;99.90;;;;;;5083747;28;20037;-78
2022/01/08 06:10:19;;;;;;;10.02;2.60;;;0.10;99.90;;;;;;5073791;28;20498;-79
2022/01/08 06:12:48;;;;;;;9.90;2.40;;;0.10;99.90;;;;;;5054334;28;20055;-79
2022/01/08 06:15:14;;;;;;;6.18;2.20;;;0.10;99.90;;;;;;5065951;28;20119;-80
2022/01/08 06:17:40;;;;;;;10.18;3.22;;;0.00;99.90;;;;;;5076279;28;20044;-79
2022/01/08 06:20:09;;;;;;;7.90;2.83;;;0.10;99.90;;;;;;5076625;28;20067;-79
2022/01/08 06:22:35;;;;;;;9.25;2.30;;;0.00;99.90;;;;;;5076239;28;20080;-80
2022/01/08 06:25:01;;;;;;;7.20;2.50;;;0.10;99.90;;;;;;5076271;28;20079;-80
2022/01/08 06:27:26;;;;;;;10.07;2.75;;;0.10;99.90;;;;;;5075872;28;20040;-80
2022/01/08 06:29:52;;;;;;;8.38;2.95;;;0.90;99.90;;;;;;5075978;28;20064;-80
2022/01/08 06:32:19;;;;;;;8.68;2.90;;;0.30;99.90;;;;;;5076018;28;20051;-80
2022/01/08 06:34:44;;;;;;;10.23;3.17;;;0.00;99.90;;;;;;5075675;28;20109;-79
2022/01/08 06:37:10;;;;;;;7.72;2.70;;;0.00;99.90;;;;;;5058116;28;20494;-79
2022/01/08 06:39:36;;;;;;;9.45;2.95;;;0.10;99.90;;;;;;5075755;28;20045;-79
2022/01/08 06:42:03;;;;;;;6.72;2.40;;;0.00;99.90;;;;;;5075495;28;20044;-79
2022/01/08 06:44:29;;;;;;;8.18;2.70;;;0.10;99.90;;;;;;5057254;28;20052;-78
2022/01/08 06:46:55;;;;;;;8.18;2.67;;;0.10;99.90;;;;;;5075510;28;20047;-79
2022/01/08 06:49:21;;;;;;;8.60;2.50;;;0.00;99.90;;;;;;5075318;28;20037;-79
2022/01/08 06:51:47;;;;;;;11.90;3.53;;;0.00;99.90;;;;;;5057430;28;20048;-79
2022/01/08 06:54:12;;;;;;;7.18;2.83;;;0.00;99.90;;;;;;5057578;28;20478;-79
2022/01/08 06:56:39;;;;;;;7.63;2.35;;;0.00;99.90;;;;;;5075282;28;20040;-79
2022/01/08 06:59:05;;;;;;;7.57;3.05;;;0.00;99.90;;;;;;5074357;28;20056;-80
2022/01/08 07:01:31;;;;;;;9.23;2.67;;;0.00;99.90;;;;;;5040101;28;20064;-79
2022/01/08 07:03:56;;;;;;;11.10;3.17;;;0.00;99.90;;;;;;5075062;28;20073;-81
2022/01/08 07:06:22;;;;;;;9.88;3.10;;;0.00;99.90;;;;;;5075025;28;20049;-80
2022/01/08 07:08:49;;;;;;;7.10;2.83;;;0.00;99.90;;;;;;5075336;28;20032;-81
2022/01/08 07:11:16;;;;;;;11.25;3.08;;;0.00;99.90;;;;;;5075209;28;20044;-79
2022/01/08 07:13:42;;;;;;;15.65;6.03;;;-0.10;99.90;;;;;;5075234;28;20044;-81
2022/01/08 07:16:08;;;;;;;15.43;6.10;;;1.00;99.90;;;;;;5074924;28;20044;-80
2022/01/08 07:18:34;;;;;;;15.50;5.40;;;-0.10;99.90;;;;;;5057076;28;20048;-78
2022/01/08 07:20:59;;;;;;;17.98;5.45;;;-0.10;99.90;;;;;;5074352;28;20135;-81
2022/01/08 07:23:25;;;;;;;17.05;5.63;;;-0.10;99.90;;;;;;5056549;28;20057;-80
2022/01/08 07:25:51;;;;;;;18.70;5.68;;;-0.10;99.90;;;;;;5059752;28;20045;-81
2022/01/08 07:28:17;;;;;;;15.68;6.18;;;-0.10;99.90;;;;;;5074952;28;20043;-80
2022/01/08 07:30:42;;;;;;;15.95;5.95;;;-0.10;99.90;;;;;;5076736;28;20127;-81
2022/01/08 07:33:21;;;;;;;15.93;6.05;;;-0.10;99.90;;;;;;5077672;28;20091;-79
2022/01/08 07:35:48;;;;;;;13.27;6.38;;;-0.10;99.90;;;;;;5074818;28;20044;-80
2022/01/08 07:38:14;;;;;;;15.25;6.05;;;-0.10;99.90;;;;;;5041916;28;20048;-81
2022/01/08 07:40:40;;;;;;;14.52;6.13;;;-0.10;99.90;;;;;;5074313;28;20156;-81
2022/01/08 07:43:05;;;;;;;13.50;5.65;;;-0.10;99.90;;;;;;5074516;28;20048;-81
2022/01/08 07:45:31;;;;;;;16.85;6.50;;;0.90;99.90;;;;;;5057122;28;20044;-81
2022/01/08 07:47:57;;;;;;;13.70;5.72;;;-0.10;99.90;;;;;;5075578;28;20478;-81
2022/01/08 07:50:23;;;;;;;15.57;5.75;;;-0.10;99.90;;;;;;5080732;28;20044;-79
2022/01/08 07:52:48;;;;;;;17.23;6.55;;;0.00;99.90;;;;;;5070293;28;20044;-79
2022/01/08 07:55:14;;;;;;;16.70;6.18;;;-0.10;99.90;;;;;;5063407;28;20128;-78
2022/01/08 07:57:40;;;;;;;16.30;5.75;;;-0.10;99.90;;;;;;5078391;28;20048;-78
2022/01/08 08:00:07;;;;;;;17.77;6.32;;;0.00;99.90;;;;;;5078861;28;20047;-79
2022/01/08 08:02:33;;;;;;;14.98;6.38;;;0.00;99.90;;;;;;5074373;28;20371;-79
2022/01/08 08:04:59;;;;;;;15.80;6.53;;;0.00;99.90;;;;;;5076738;28;20136;-78
2022/01/08 08:07:29;;;;;;;22.75;6.82;;;0.00;99.90;;;;;;5055590;28;20513;-79
2022/01/08 08:09:55;;;;;;;21.58;6.65;;;0.00;99.90;;;;;;5073834;28;20087;-79
2022/01/08 08:12:22;;;;;;;15.57;6.25;;;0.00;99.90;;;;;;5072998;28;20040;-79
2022/01/08 08:14:48;;;;;;;20.20;6.65;;;0.00;99.90;;;;;;5073678;28;20120;-79
2022/01/08 08:17:14;;;;;;;16.27;7.05;;;0.00;99.90;;;;;;5073838;28;20111;-79
2022/01/08 08:19:39;;;;;;;12.75;6.00;;;0.00;99.90;;;;;;5073133;28;20414;-79
2022/01/08 08:22:05;;;;;;;12.02;5.93;;;0.10;99.90;;;;;;5073733;28;20414;-80
2022/01/08 08:24:31;;;;;;;13.93;5.82;;;0.90;99.90;;;;;;5038336;28;20525;-79
2022/01/08 08:26:56;;;;;;;12.55;5.97;;;0.10;99.90;;;;;;5073665;28;20048;-79
2022/01/08 08:29:22;;;;;;;14.30;6.15;;;0.10;99.90;;;;;;5073433;28;20514;-79
2022/01/08 08:31:48;;;;;;;14.98;6.97;;;0.20;99.90;;;;;;5073239;28;20474;-79
2022/01/08 08:34:13;;;;;;;19.02;6.25;;;0.20;99.90;;;;;;5073143;28;20039;-80
2022/01/08 08:36:39;;;;;;;15.00;6.18;;;0.40;99.90;;;;;;5073513;28;20045;-81
2022/01/08 08:39:04;;;;;;;15.40;5.78;;;1.30;99.90;;;;;;5073218;28;20048;-80
2022/01/08 08:41:30;;;;;;;16.20;6.38;;;0.30;99.90;;;;;;5073179;28;20044;-81
2022/01/08 08:43:56;;;;;;;16.63;6.53;;;0.30;99.90;;;;;;5072797;28;20052;-80
2022/01/08 08:46:22;;;;;;;14.32;5.95;;;0.30;99.90;;;;;;5073049;28;20094;-77
2022/01/08 08:48:47;;;;;;;17.35;6.68;;;0.30;99.90;;;;;;5054963;28;20473;-78
2022/01/08 08:51:13;;;;;;;15.38;5.72;;;0.40;99.90;;;;;;5055186;28;20502;-78
2022/01/08 08:53:38;;;;;;;16.60;5.80;;;0.40;99.90;;;;;;5073042;28;20394;-77
2022/01/08 08:56:04;;;;;;;17.13;5.80;;;0.50;99.90;;;;;;5073024;28;20044;-79
2022/01/08 08:58:30;;;;;;;13.02;5.90;;;0.50;99.90;;;;;;5072980;28;20041;-78
2022/01/08 09:00:56;;;;;;;20.02;6.10;;;0.60;99.90;;;;;;5055033;28;20060;-79
2022/01/08 09:03:21;;;;;;;14.93;6.20;;;0.60;99.90;;;;;;5054280;28;20049;-78
2022/01/08 09:05:47;;;;;;;15.45;5.70;;;0.70;99.90;;;;;;5072552;28;20487;-78
2022/01/08 09:08:13;;;;;;;16.52;6.72;;;0.70;99.90;;;;;;5072908;28;21181;-79
2022/01/08 09:10:39;;;;;;;16.10;5.05;;;0.70;99.90;;;;;;5054577;28;20447;-78
2022/01/08 09:13:04;;;;;;;16.25;6.18;;;0.80;99.90;;;;;;5054047;28;20053;-78
2022/01/08 09:15:30;;;;;;;13.77;5.32;;;1.60;99.90;;;;;;5055047;28;20070;-78
2022/01/08 09:17:58;;;;;;;13.52;5.68;;;0.80;99.90;;;;;;5072593;28;20040;-79
2022/01/08 09:20:26;;;;;;;14.82;5.72;;;0.80;99.90;;;;;;5054734;28;20044;-78
2022/01/08 09:22:52;;;;;;;13.50;6.18;;;1.60;99.90;;;;;;5072809;28;20052;-79
2022/01/08 09:25:19;;;;;;;22.63;5.70;;;0.80;99.90;;;;;;5054598;28;20182;-77
2022/01/08 09:27:45;;;;;;;14.57;6.10;;;0.80;99.90;;;;;;5054152;28;20084;-79
2022/01/08 09:30:11;;;;;;;16.85;7.10;;;0.80;99.90;;;;;;5072410;28;20127;-78
2022/01/08 09:32:37;;;;;;;13.43;6.30;;;0.80;99.90;;;;;;5072440;28;20048;-79
2022/01/08 09:35:04;;;;;;;14.98;6.75;;;0.80;99.90;;;;;;5036891;28;20056;-79
2022/01/08 09:37:30;;;;;;;18.48;6.47;;;0.80;99.90;;;;;;5072332;28;20131;-77
2022/01/08 09:39:56;;;;;;;14.80;6.40;;;0.90;99.90;;;;;;5072199;28;20132;-77
2022/01/08 09:42:24;;;;;;;17.95;6.35;;;0.90;99.90;;;;;;5054854;28;20170;-78
2022/01/08 09:44:50;;;;;;;16.30;6.40;;;1.00;99.90;;;;;;5055044;28;20052;-79
2022/01/08 09:47:16;;;;;;;17.38;6.68;;;1.60;99.90;;;;;;5072984;28;20106;-78
2022/01/08 09:49:41;;;;;;;15.05;6.70;;;1.10;99.90;;;;;;5073017;28;20482;-79
2022/01/08 09:52:07;;;;;;;18.67;6.43;;;1.10;99.90;;;;;;5072531;28;20070;-79
2022/01/08 09:54:33;;;;;;;15.23;6.85;;;2.20;99.90;;;;;;5073217;28;20048;-79
2022/01/08 09:56:59;;;;;;;15.23;6.85;;;1.20;99.90;;;;;;5073205;28;20390;-79
2022/01/08 09:59:28;;;;;;;16.00;6.32;;;1.20;99.90;;;;;;5072411;28;20043;-77
2022/01/08 10:02:01;;;;;;;16.48;6.88;;;1.20;99.90;;;;;;5076881;28;20092;-78
2022/01/08 10:04:36;;;;;;;16.58;7.25;;;1.20;99.90;;;;;;5085347;28;20124;-78
2022/01/08 10:07:17;;;;;;;18.42;7.30;;;1.20;99.90;;;;;;5088069;28;20552;-78
2022/01/08 10:10:12;;;;;;;20.25;7.00;;;1.10;99.90;;;;;;5067026;28;20045;-78
2022/01/08 10:13:00;;;;;;;16.55;6.78;;;1.20;99.90;;;;;;5080950;28;20075;-78
2022/01/08 10:18:33;;;;;;;15.85;7.65;;;1.30;99.90;;;;;;5040601;28;20461;-81
2022/01/08 10:21:02;;;;;;;15.07;7.53;;;1.40;99.90;;;;;;5054314;28;20106;-81
2022/01/08 10:23:31;;;;;;;14.90;7.95;;;1.50;99.90;;;;;;5072405;28;20044;-81
2022/01/08 10:26:11;;;;;;;17.50;7.78;;;1.50;99.90;;;;;;5054123;28;20094;-82
2022/01/08 10:28:47;;;;;;;19.17;7.55;;;1.60;99.90;;;;;;5072264;28;20084;-81
2022/01/08 10:31:27;;;;;;;18.52;8.95;;;1.60;99.90;;;;;;5072176;28;20043;-80
2022/01/08 10:34:13;;;;;;;20.70;8.43;;;1.60;99.90;;;;;;5072043;28;20402;-81
2022/01/08 10:36:45;;;;;;;21.58;9.10;;;1.80;99.90;;;;;;5075217;28;20134;-82
2022/01/08 10:39:28;;;;;;;17.92;8.02;;;1.70;99.90;;;;;;5075677;28;20048;-82
2022/01/08 10:41:56;;;;;;;21.60;9.20;;;1.70;99.90;;;;;;5075449;28;20056;-82
2022/01/08 10:44:26;;;;;;;23.10;9.30;;;1.80;99.90;;;;;;5075767;28;20090;-82
2022/01/08 10:46:51;;;;;;;15.77;9.02;;;1.80;99.90;;;;;;5075767;28;20044;-82
2022/01/08 10:49:26;;;;;;;20.60;9.25;;;1.80;99.90;;;;;;5057410;28;20055;-82
2022/01/08 10:51:56;;;;;;;18.10;9.80;;;1.80;99.90;;;;;;5075329;28;20040;-82
2022/01/08 10:54:29;;;;;;;20.60;10.20;;;1.80;99.90;;;;;;5057821;28;20048;-83
2022/01/08 10:56:56;;;;;;;19.23;9.45;;;1.90;99.90;;;;;;5075465;28;20094;-82
2022/01/08 10:59:25;;;;;;;18.23;9.32;;;1.90;99.90;;;;;;5057062;28;20060;-83
2022/01/08 11:01:58;;;;;;;17.42;8.93;;;1.90;99.90;;;;;;5075099;28;20119;-82
2022/01/08 11:04:50;;;;;;;17.23;8.73;;;1.90;99.90;;;;;;5075316;28;20059;-82
2022/01/08 11:07:20;;;;;;;18.92;9.73;;;1.90;99.90;;;;;;5075347;28;20037;-83
2022/01/08 11:09:48;;;;;;;24.25;9.45;;;1.90;99.90;;;;;;5075136;28;20044;-80
2022/01/08 11:12:18;;;;;;;17.30;8.55;;;3.00;99.90;;;;;;5075440;28;20055;-83
2022/01/08 11:17:25;;;;;;;26.67;11.50;;;2.00;99.90;;;;;;5075364;28;20410;-83
2022/01/08 11:20:07;;;;;;;18.55;10.15;;;2.10;99.90;;;;;;5074975;28;20068;-82
2022/01/08 11:22:34;;;;;;;19.63;9.10;;;2.70;99.90;;;;;;5075681;28;20048;-82
2022/01/08 11:25:17;;;;;;;19.83;9.38;;;2.10;99.90;;;;;;5057102;28;20044;-83
2022/01/08 11:28:03;;;;;;;;;;;2.10;99.90;;;;;;5075244;28;20076;-81
2022/01/08 11:30:31;;;;;;;18.98;9.93;;;2.10;99.90;;;;;;5074690;28;20011;-83
2022/01/08 11:33:02;;;;;;;17.15;8.85;;;2.10;99.90;;;;;;5074417;28;20498;-80
2022/01/08 11:35:31;;;;;;;18.95;9.93;;;2.20;99.90;;;;;;5074817;28;20048;-82
2022/01/08 11:38:01;;;;;;;18.83;9.73;;;2.20;99.90;;;;;;5074107;28;20502;-78
2022/01/08 11:40:28;;;;;;;20.38;9.57;;;2.20;99.90;;;;;;5037050;28;20171;-77
2022/01/08 11:42:54;;;;;;;16.38;9.77;;;2.60;99.90;;;;;;5054676;28;20045;-79
2022/01/08 11:45:33;;;;;;;18.67;9.25;;;2.20;99.90;;;;;;5036888;28;20455;-79
2022/01/08 11:48:02;;;;;;;16.73;8.52;;;2.30;99.90;;;;;;5051890;28;20491;-77
2022/01/08 11:50:31;;;;;;;21.30;9.23;;;2.30;99.90;;;;;;5053153;28;20091;-78
2022/01/08 11:53:17;;;;;;;20.73;9.38;;;2.70;99.90;;;;;;5054126;28;20080;-78
2022/01/08 11:55:45;;;;;;;19.80;9.43;;;2.30;99.90;;;;;;5054128;28;20049;-78
2022/01/08 11:58:17;;;;;;;19.92;8.95;;;2.40;99.90;;;;;;5053925;28;20099;-76
2022/01/08 12:01:07;;;;;;;16.05;9.32;;;2.40;99.90;;;;;;5052745;28;20047;-77
2022/01/08 12:03:37;;;;;;;19.95;10.05;;;2.50;99.90;;;;;;5051783;28;20438;-77
2022/01/08 12:06:27;;;;;;;22.63;10.32;;;2.60;99.90;;;;;;5053817;28;20479;-78
2022/01/08 12:09:45;;;;;;;17.20;9.00;;;3.70;99.90;;;;;;5053892;28;20057;-78
2022/01/08 12:11:55;;;;;;;20.88;9.57;;;2.70;99.90;;;;;;5039793;28;20060;-78
2022/01/08 12:14:27;;;;;;;25.02;10.18;;;2.80;99.90;;;;;;5053847;28;20053;-79
2022/01/08 12:16:58;;;;;;;19.77;9.38;;;2.90;99.90;;;;;;5053651;28;20052;-78
2022/01/08 12:19:28;;;;;;;21.33;9.60;;;2.90;99.90;;;;;;5053497;28;20439;-78
2022/01/08 12:21:53;;;;;;;18.65;10.82;;;2.90;99.90;;;;;;5053630;28;20052;-78
2022/01/08 12:24:28;;;;;;;21.08;10.32;;;2.90;99.90;;;;;;5053963;28;20041;-78
2022/01/08 12:26:59;;;;;;;20.77;10.07;;;3.10;99.90;;;;;;5053575;28;20053;-78
2022/01/08 12:29:51;;;;;;;20.70;9.75;;;2.80;99.90;;;;;;5053443;28;20072;-78
2022/01/08 12:32:26;;;;;;;19.85;10.50;;;2.80;99.90;;;;;;5051127;28;20069;-79
2022/01/08 12:35:01;;;;;;;23.00;11.13;;;2.80;99.90;;;;;;5035486;28;20529;-82
2022/01/08 12:37:40;;;;;;;22.60;10.98;;;2.80;99.90;;;;;;5053391;28;20053;-83
2022/01/08 12:40:09;;;;;;;19.38;11.20;;;2.80;99.90;;;;;;5071219;28;20071;-82
2022/01/08 12:42:38;;;;;;;26.20;13.93;;;2.80;99.90;;;;;;5055272;28;20052;-82
2022/01/08 12:45:14;;;;;;;22.15;11.68;;;3.40;99.90;;;;;;5073794;28;20094;-83
2022/01/08 12:47:54;;;;;;;23.45;12.05;;;2.80;99.90;;;;;;5056453;28;20048;-83
2022/01/08 12:50:37;;;;;;;23.88;12.02;;;2.80;99.90;;;;;;5074426;28;20047;-82
2022/01/08 12:53:05;;;;;;;24.75;12.45;;;2.80;99.90;;;;;;5074615;28;20036;-83
2022/01/08 12:55:40;;;;;;;22.45;13.05;;;2.80;99.90;;;;;;5088465;28;20041;-79
2022/01/08 12:58:27;;;;;;;24.70;13.85;;;2.80;99.90;;;;;;5089042;28;20040;-78
2022/01/08 13:01:09;;;;;;;23.83;14.40;;;2.80;99.90;;;;;;5092447;28;20036;-80
2022/01/08 13:03:43;;;;;;;25.95;14.20;;;2.80;99.90;;;;;;5074147;28;20036;-82
2022/01/08 13:06:15;;;;;;;24.08;14.35;;;2.80;99.90;;;;;;5074869;28;20070;-83
2022/01/08 13:08:45;;;;;;;30.23;14.38;;;2.80;99.90;;;;;;5076421;28;20055;-82
2022/01/08 13:11:14;;;;;;;26.30;14.60;;;2.80;99.90;;;;;;5043599;28;20052;-83
2022/01/08 13:13:49;;;;;;;27.88;15.32;;;2.70;99.90;;;;;;5073479;28;20117;-82